Blue Springs, Mississippi
Current Conditions -  °F | °C
As of 6:10 PM on Monday 22 Dec 2014 (Local Time) from KTUP Reporting Station
Haze Haze  
Wind Chill: 55°   Ceiling: 300
Heat Index: 55°   Visibility: 3mi
Dew Point: 53°   Wind: 10mph
Humidity: 93%   Direction: 190°S
Pressure: 29.69"   Gusts: NA
Location:  34.4°N, 88.87°W
Report Text: KTUP 230010Z 19009KT 3SM BR OVC003 13/12 A2969 RMK AO2 RAB2357E06 P0001 T01280117
Loading
Personal Weather Stations






























Interactive Weather Map New forecast layout! Learn more

10-Day Weather Forecast

Advertisements
Track Severe Weather on mobile